createdAt,value
2018-09-11T00:00:56.017Z,5.97
2018-09-11T00:03:24.389Z,6.17
2018-09-11T00:05:52.780Z,6.27
2018-09-11T00:08:21.136Z,7.20
2018-09-11T00:10:49.534Z,5.90
2018-09-11T00:13:17.899Z,6.57
2018-09-11T00:15:46.294Z,6.00
2018-09-11T00:18:14.667Z,6.53
2018-09-11T00:20:43.054Z,5.70
2018-09-11T00:23:11.445Z,6.40
2018-09-11T00:25:39.829Z,6.53
2018-09-11T00:28:08.315Z,5.90
2018-09-11T00:30:36.705Z,6.20
2018-09-11T00:33:05.074Z,6.37
2018-09-11T00:35:33.467Z,5.70
2018-09-11T00:38:01.845Z,6.23
2018-09-11T00:40:30.260Z,5.93
2018-09-11T00:42:58.635Z,5.80
2018-09-11T00:45:27.033Z,5.13
2018-09-11T00:47:55.397Z,6.10
2018-09-11T00:50:23.764Z,5.53
2018-09-11T00:52:52.162Z,6.40
2018-09-11T00:55:20.525Z,6.30
2018-09-11T00:57:48.927Z,5.60
2018-09-11T01:00:17.323Z,5.77
2018-09-11T01:02:45.767Z,6.43
2018-09-11T01:05:14.129Z,5.60
2018-09-11T01:07:42.530Z,6.10
2018-09-11T01:10:11.453Z,6.03
2018-09-11T01:12:39.848Z,5.63
2018-09-11T01:15:09.214Z,5.93
2018-09-11T01:17:37.819Z,5.80
2018-09-11T01:20:06.782Z,5.60
2018-09-11T01:22:35.193Z,5.53
2018-09-11T01:25:03.553Z,5.17
2018-09-11T01:27:31.955Z,4.97
2018-09-11T01:30:00.323Z,5.70
2018-09-11T01:32:28.709Z,5.83
2018-09-11T01:34:57.078Z,5.00
2018-09-11T01:37:25.466Z,5.37
2018-09-11T01:39:53.839Z,4.43
2018-09-11T01:42:22.231Z,4.73
2018-09-11T01:44:50.596Z,4.67
2018-09-11T01:47:18.987Z,4.33
2018-09-11T01:49:47.347Z,4.43
2018-09-11T01:52:15.738Z,4.13
2018-09-11T01:54:44.112Z,4.57
2018-09-11T01:57:12.506Z,4.60
2018-09-11T01:59:40.874Z,3.60
2018-09-11T02:02:09.262Z,3.70
2018-09-11T02:04:37.630Z,4.00
2018-09-11T02:07:06.026Z,4.20
2018-09-11T02:09:34.398Z,3.20
2018-09-11T02:12:02.796Z,3.90
2018-09-11T02:14:31.170Z,4.00
2018-09-11T02:16:59.566Z,3.80
2018-09-11T02:19:27.934Z,3.57
2018-09-11T02:21:56.346Z,4.00
2018-09-11T02:24:24.709Z,3.30
2018-09-11T02:26:53.099Z,4.00
2018-09-11T02:29:21.470Z,3.00
2018-09-11T02:31:49.870Z,3.80
2018-09-11T02:34:18.238Z,3.73
2018-09-11T02:36:46.622Z,3.30
2018-09-11T02:39:15.002Z,3.20
2018-09-11T02:41:43.383Z,3.30
2018-09-11T02:44:12.097Z,3.60
2018-09-11T02:46:40.583Z,4.10
2018-09-11T02:49:08.980Z,3.40
2018-09-11T02:51:37.362Z,3.20
2018-09-11T02:54:05.759Z,3.50
2018-09-11T02:56:34.132Z,2.80
2018-09-11T02:59:02.531Z,2.87
2018-09-11T03:01:30.899Z,3.07
2018-09-11T03:03:59.293Z,3.20
2018-09-11T03:06:29.384Z,3.07
2018-09-11T03:08:57.774Z,3.33
2018-09-11T03:11:26.138Z,2.67
2018-09-11T03:13:54.532Z,2.83
2018-09-11T03:16:22.898Z,2.97
2018-09-11T03:18:51.366Z,3.20
2018-09-11T03:21:19.710Z,3.00
2018-09-11T03:23:48.138Z,2.83
2018-09-11T03:26:16.494Z,3.30
2018-09-11T03:28:44.889Z,3.40
2018-09-11T03:31:13.257Z,3.80
2018-09-11T03:33:41.651Z,3.03
2018-09-11T03:36:10.028Z,3.33
2018-09-11T03:38:38.424Z,3.67
2018-09-11T03:41:06.997Z,3.87
2018-09-11T03:43:35.391Z,3.13
2018-09-11T03:46:03.762Z,3.20
2018-09-11T03:48:32.166Z,4.03
2018-09-11T03:51:00.542Z,4.03
2018-09-11T03:53:28.931Z,3.40
2018-09-11T03:55:57.294Z,3.60
2018-09-11T03:58:25.716Z,2.80
2018-09-11T04:00:54.090Z,3.90
2018-09-11T04:03:22.483Z,2.70
2018-09-11T04:05:50.858Z,3.53
2018-09-11T04:08:19.243Z,3.17
2018-09-11T04:10:47.615Z,3.20
2018-09-11T04:13:16.009Z,3.47
2018-09-11T04:15:44.379Z,4.37
2018-09-11T04:18:12.863Z,3.33
2018-09-11T04:20:41.242Z,3.97
2018-09-11T04:23:09.674Z,4.13
2018-09-11T04:25:38.093Z,3.83
2018-09-11T04:28:06.478Z,4.90
2018-09-11T04:30:35.003Z,3.33
2018-09-11T04:33:03.823Z,3.63
2018-09-11T04:35:32.206Z,3.80
2018-09-11T04:38:00.657Z,3.80
2018-09-11T04:40:29.070Z,3.57
2018-09-11T04:42:57.491Z,3.63
2018-09-11T04:45:25.863Z,3.47
2018-09-11T04:47:54.226Z,4.10
2018-09-11T04:50:22.611Z,3.00
2018-09-11T04:52:50.983Z,3.17
2018-09-11T04:55:19.383Z,3.80
2018-09-11T04:57:47.758Z,3.90
2018-09-11T05:00:16.150Z,4.23
2018-09-11T05:02:44.517Z,3.97
2018-09-11T05:05:12.912Z,4.20
2018-09-11T05:07:41.311Z,4.63
2018-09-11T05:10:09.718Z,4.70
2018-09-11T05:12:38.091Z,3.90
2018-09-11T05:15:06.492Z,4.53
2018-09-11T05:17:35.053Z,3.97
2018-09-11T05:20:03.456Z,4.80
2018-09-11T05:22:31.862Z,3.93
2018-09-11T05:25:00.250Z,4.60
2018-09-11T05:27:28.675Z,4.90
2018-09-11T05:29:57.091Z,4.90
2018-09-11T05:32:25.456Z,5.93
2018-09-11T05:34:53.842Z,4.80
2018-09-11T05:37:22.220Z,5.20
2018-09-11T05:39:50.614Z,5.87
2018-09-11T05:42:19.095Z,6.03
2018-09-11T05:44:47.523Z,5.77
2018-09-11T05:47:15.969Z,5.33
2018-09-11T05:49:44.309Z,5.60
2018-09-11T05:52:12.703Z,7.13
2018-09-11T05:54:41.102Z,6.00
2018-09-11T05:57:09.462Z,6.03
2018-09-11T05:59:37.850Z,7.17
2018-09-11T06:02:07.002Z,6.87
2018-09-11T06:04:35.390Z,6.70
2018-09-11T06:07:03.919Z,7.73
2018-09-11T06:09:32.309Z,8.00
2018-09-11T06:12:00.682Z,8.17
2018-09-11T06:14:29.074Z,8.20
2018-09-11T06:16:57.445Z,7.50
2018-09-11T06:19:25.857Z,8.90
2018-09-11T06:21:54.251Z,7.27
2018-09-11T06:24:22.638Z,8.67
2018-09-11T06:26:51.010Z,8.10
2018-09-11T06:29:19.478Z,9.20
2018-09-11T06:31:47.799Z,8.63
2018-09-11T06:34:16.194Z,8.50
2018-09-11T06:36:44.563Z,8.27
2018-09-11T06:39:12.964Z,8.37
2018-09-11T06:41:41.349Z,8.97
2018-09-11T06:44:09.756Z,8.93
2018-09-11T06:46:38.130Z,9.80
2018-09-11T06:49:06.498Z,8.93
2018-09-11T06:51:34.903Z,9.33
2018-09-11T06:54:03.299Z,8.63
2018-09-11T06:56:31.702Z,9.30
2018-09-11T06:59:00.218Z,8.77
2018-09-11T07:01:28.602Z,8.77
2018-09-11T07:03:56.973Z,8.07
2018-09-11T07:06:25.366Z,9.43
2018-09-11T07:08:53.738Z,8.70
2018-09-11T07:11:22.129Z,8.73
2018-09-11T07:13:50.494Z,7.87
2018-09-11T07:16:18.891Z,8.07
2018-09-11T07:18:47.266Z,8.33
2018-09-11T07:21:15.690Z,7.87
2018-09-11T07:23:44.057Z,8.27
2018-09-11T07:26:12.584Z,9.20
2018-09-11T07:28:40.931Z,7.30
2018-09-11T07:31:09.323Z,7.07
2018-09-11T07:33:37.695Z,7.33
2018-09-11T07:36:06.085Z,9.20
2018-09-11T07:38:34.458Z,9.23
2018-09-11T07:41:02.854Z,8.80
2018-09-11T07:43:31.235Z,8.10
2018-09-11T07:45:59.626Z,7.93
2018-09-11T07:48:28.002Z,8.37
2018-09-11T07:50:56.448Z,9.50
2018-09-11T07:53:24.821Z,9.83
2018-09-11T07:55:53.219Z,9.60
2018-09-11T07:58:21.627Z,10.00
2018-09-11T08:00:50.170Z,8.57
2018-09-11T08:03:18.538Z,8.50
2018-09-11T08:05:46.934Z,9.40
2018-09-11T08:08:15.339Z,8.77
2018-09-11T08:10:43.717Z,9.83
2018-09-11T08:13:12.090Z,9.80
2018-09-11T08:15:40.484Z,9.53
2018-09-11T08:18:08.862Z,7.90
2018-09-11T08:20:37.259Z,9.57
2018-09-11T08:23:05.767Z,8.97
2018-09-11T08:25:34.158Z,9.03
2018-09-11T08:28:02.559Z,9.33
2018-09-11T08:30:32.503Z,7.93
2018-09-11T08:33:01.886Z,8.10
2018-09-11T08:35:30.451Z,9.00
2018-09-11T08:37:58.946Z,8.90
2018-09-11T08:40:27.338Z,7.27
2018-09-11T08:42:55.711Z,9.03
2018-09-11T08:45:24.174Z,8.37
2018-09-11T08:47:52.542Z,8.93
2018-09-11T08:50:20.911Z,7.87
2018-09-11T08:52:49.328Z,7.47
2018-09-11T08:55:17.695Z,7.83
2018-09-11T08:57:46.096Z,7.47
2018-09-11T09:00:14.462Z,7.63
2018-09-11T09:02:42.870Z,6.93
2018-09-11T09:05:11.246Z,7.03
2018-09-11T09:07:39.690Z,8.37
2018-09-11T09:10:08.131Z,6.50
2018-09-11T09:12:36.556Z,6.10
2018-09-11T09:15:04.937Z,5.10
2018-09-11T09:17:33.340Z,5.97
2018-09-11T09:20:01.706Z,5.00
2018-09-11T09:22:30.115Z,5.80
2018-09-11T09:24:58.486Z,5.60
2018-09-11T09:27:26.923Z,5.57
2018-09-11T09:29:55.298Z,5.30
2018-09-11T09:32:23.698Z,5.50
2018-09-11T09:34:52.074Z,5.20
2018-09-11T09:37:20.482Z,4.47
2018-09-11T09:39:48.857Z,4.70
2018-09-11T09:42:17.264Z,4.20
2018-09-11T09:44:45.646Z,4.83
2018-09-11T09:47:14.067Z,4.43
2018-09-11T09:49:42.670Z,4.30
2018-09-11T09:52:11.062Z,4.43
2018-09-11T09:54:39.437Z,4.10
2018-09-11T09:57:07.828Z,3.60
2018-09-11T09:59:36.194Z,4.40
2018-09-11T10:02:08.788Z,4.53
2018-09-11T10:04:37.170Z,4.10
2018-09-11T10:07:05.579Z,3.53
2018-09-11T10:09:33.947Z,4.60
2018-09-11T10:12:02.342Z,3.90
2018-09-11T10:14:30.715Z,3.60
2018-09-11T10:16:59.112Z,4.00
2018-09-11T10:19:27.490Z,3.83
2018-09-11T10:21:55.913Z,3.80
2018-09-11T10:24:24.295Z,3.63
2018-09-11T10:26:52.685Z,3.43
2018-09-11T10:29:21.056Z,4.13
2018-09-11T10:31:49.447Z,3.97
2018-09-11T10:34:17.828Z,4.03
2018-09-11T10:36:46.223Z,3.97
2018-09-11T10:39:14.624Z,4.00
2018-09-11T10:41:43.038Z,3.80
2018-09-11T10:44:11.443Z,3.33
2018-09-11T10:46:39.810Z,3.70
2018-09-11T10:49:08.207Z,3.40
2018-09-11T10:51:36.575Z,3.50
2018-09-11T10:54:04.975Z,4.07
2018-09-11T10:56:33.339Z,4.00
2018-09-11T10:59:01.737Z,3.70
2018-09-11T11:01:30.119Z,2.93
2018-09-11T11:03:58.546Z,4.00
2018-09-11T11:06:26.918Z,3.60
2018-09-11T11:08:55.319Z,3.50
2018-09-11T11:11:23.702Z,3.33
2018-09-11T11:13:52.095Z,4.33
2018-09-11T11:16:20.495Z,3.50
2018-09-11T11:18:48.897Z,3.70
2018-09-11T11:21:17.630Z,4.07
2018-09-11T11:23:46.162Z,3.33
2018-09-11T11:26:14.534Z,3.40
2018-09-11T11:28:42.974Z,3.53
2018-09-11T11:31:11.355Z,3.63
2018-09-11T11:33:39.747Z,3.20
2018-09-11T11:36:08.191Z,3.60
2018-09-11T11:38:36.539Z,3.43
2018-09-11T11:41:04.908Z,3.83
2018-09-11T11:43:33.303Z,3.23
2018-09-11T11:46:01.671Z,3.90
2018-09-11T11:48:30.070Z,3.53
2018-09-11T11:50:58.430Z,4.00
2018-09-11T11:53:26.830Z,2.80
2018-09-11T11:55:55.255Z,3.77
2018-09-11T11:58:23.654Z,4.47
2018-09-11T12:00:52.081Z,4.30
2018-09-11T12:03:20.474Z,3.33
2018-09-11T12:05:48.838Z,4.03
2018-09-11T12:08:17.231Z,3.83
2018-09-11T12:10:45.639Z,3.77
2018-09-11T12:13:14.033Z,3.40
2018-09-11T12:15:42.407Z,4.13
2018-09-11T12:18:10.810Z,3.40
2018-09-11T12:20:39.182Z,3.50
2018-09-11T12:23:07.607Z,3.37
2018-09-11T12:25:36.130Z,3.73
2018-09-11T12:28:04.398Z,3.00
2018-09-11T12:30:32.771Z,3.40
2018-09-11T12:33:01.366Z,3.60
2018-09-11T12:35:29.742Z,3.47
2018-09-11T12:37:58.126Z,3.40
2018-09-11T12:40:26.519Z,3.40
2018-09-11T12:42:54.935Z,2.90
2018-09-11T12:45:23.307Z,3.33
2018-09-11T12:47:52.144Z,4.23
2018-09-11T12:50:20.107Z,3.30
2018-09-11T12:52:48.510Z,3.27
2018-09-11T12:55:16.910Z,3.37
2018-09-11T12:57:45.299Z,3.20
2018-09-11T13:00:13.703Z,3.00
2018-09-11T13:02:42.065Z,2.87
2018-09-11T13:05:10.462Z,3.23
2018-09-11T13:07:39.691Z,2.83
2018-09-11T13:10:08.107Z,2.97
2018-09-11T13:12:36.479Z,2.27
2018-09-11T13:15:05.484Z,2.70
2018-09-11T13:17:33.785Z,2.70
2018-09-11T13:20:02.181Z,2.43
2018-09-11T13:22:30.574Z,2.37
2018-09-11T13:24:58.998Z,2.43
2018-09-11T13:27:27.370Z,2.80
2018-09-11T13:29:55.762Z,2.37
2018-09-11T13:32:24.147Z,2.47
2018-09-11T13:34:52.550Z,3.53
2018-09-11T13:37:20.911Z,2.47
2018-09-11T13:39:49.311Z,2.80
2018-09-11T13:42:17.679Z,2.43
2018-09-11T13:44:46.070Z,3.10
2018-09-11T13:47:14.561Z,2.90
2018-09-11T13:49:42.859Z,2.90
2018-09-11T13:52:11.235Z,1.93
2018-09-11T13:54:39.626Z,2.53
2018-09-11T13:57:07.998Z,2.50
2018-09-11T13:59:36.484Z,2.77
2018-09-11T14:02:05.052Z,2.53
2018-09-11T14:04:33.442Z,2.70
2018-09-11T14:07:01.814Z,2.30
2018-09-11T14:09:30.212Z,3.00
2018-09-11T14:11:58.586Z,2.30
2018-09-11T14:14:26.995Z,2.60
2018-09-11T14:16:55.373Z,2.60
2018-09-11T14:19:23.770Z,2.50
2018-09-11T14:21:52.167Z,2.63
2018-09-11T14:24:20.562Z,2.60
2018-09-11T14:26:49.019Z,3.13
2018-09-11T14:29:17.414Z,2.67
2018-09-11T14:31:45.885Z,2.80
2018-09-11T14:34:14.367Z,2.47
2018-09-11T14:36:42.755Z,2.93
2018-09-11T14:39:11.993Z,2.72
2018-09-11T14:41:40.642Z,2.57
2018-09-11T14:44:09.051Z,2.50
2018-09-11T14:46:37.577Z,2.70
2018-09-11T14:49:06.223Z,2.40
2018-09-11T14:51:34.640Z,2.60
2018-09-11T14:54:03.041Z,3.63
2018-09-11T14:56:31.438Z,2.90
2018-09-11T14:58:59.826Z,2.10
2018-09-11T15:01:28.243Z,2.87
2018-09-11T15:03:56.727Z,2.43
2018-09-11T15:06:25.116Z,2.40
2018-09-11T15:08:53.638Z,2.63
2018-09-11T15:11:22.066Z,2.77
2018-09-11T15:13:50.551Z,2.50
2018-09-11T15:16:18.950Z,2.50
2018-09-11T15:18:47.363Z,2.30
2018-09-11T15:21:15.781Z,2.80
2018-09-11T15:23:44.154Z,3.27
2018-09-11T15:26:12.546Z,2.20
2018-09-11T15:28:40.918Z,3.00
2018-09-11T15:31:09.318Z,3.13
2018-09-11T15:33:37.741Z,3.03
2018-09-11T15:36:06.183Z,2.50
2018-09-11T15:38:34.577Z,3.00
2018-09-11T15:41:02.979Z,3.20
2018-09-11T15:43:31.356Z,2.77
2018-09-11T15:45:59.876Z,3.20
2018-09-11T15:48:28.242Z,2.73
2018-09-11T15:50:56.640Z,3.43
2018-09-11T15:53:25.009Z,2.60
2018-09-11T15:55:53.542Z,3.27
2018-09-11T15:58:21.886Z,2.40
2018-09-11T16:00:50.279Z,2.33
2018-09-11T16:03:18.654Z,2.73
2018-09-11T16:05:47.042Z,2.67
2018-09-11T16:08:15.406Z,3.20
2018-09-11T16:10:43.794Z,2.83
2018-09-11T16:13:12.162Z,2.73
2018-09-11T16:15:40.562Z,2.83
2018-09-11T16:18:08.942Z,3.40
2018-09-11T16:20:37.343Z,2.17
2018-09-11T16:23:05.881Z,2.53
2018-09-11T16:25:34.280Z,3.07
2018-09-11T16:28:02.652Z,2.90
2018-09-11T16:30:31.053Z,2.80
2018-09-11T16:32:59.424Z,2.67
2018-09-11T16:35:27.814Z,2.90
2018-09-11T16:37:56.187Z,2.77
2018-09-11T16:40:24.583Z,4.20
2018-09-11T16:42:53.170Z,2.70
2018-09-11T16:45:21.622Z,2.30
2018-09-11T16:47:49.998Z,2.40
2018-09-11T16:50:18.366Z,1.93
2018-09-11T16:52:46.863Z,2.60
2018-09-11T16:55:15.238Z,2.90
2018-09-11T16:57:43.638Z,2.43
2018-09-11T17:00:12.014Z,2.50
2018-09-11T17:02:40.446Z,2.50
2018-09-11T17:05:08.838Z,2.50
2018-09-11T17:07:37.287Z,2.87
2018-09-11T17:10:05.899Z,2.30
2018-09-11T17:12:34.299Z,2.77
2018-09-11T17:15:02.820Z,2.70
2018-09-11T17:17:31.234Z,2.27
2018-09-11T17:19:59.606Z,3.00
2018-09-11T17:22:28.027Z,2.07
2018-09-11T17:24:56.502Z,2.60
2018-09-11T17:27:24.894Z,2.20
2018-09-11T17:29:53.266Z,2.30
2018-09-11T17:32:21.668Z,2.60
2018-09-11T17:34:50.207Z,2.70
2018-09-11T17:37:18.751Z,2.83
2018-09-11T17:39:47.132Z,2.20
2018-09-11T17:42:15.540Z,2.80
2018-09-11T17:44:43.907Z,2.33
2018-09-11T17:47:12.306Z,2.43
2018-09-11T17:49:40.682Z,3.07
2018-09-11T17:52:09.088Z,2.97
2018-09-11T17:54:37.465Z,2.93
2018-09-11T17:57:05.955Z,2.33
2018-09-11T17:59:34.335Z,2.70
2018-09-11T18:02:02.752Z,2.87
2018-09-11T18:04:31.148Z,2.70
2018-09-11T18:06:59.546Z,2.93
2018-09-11T18:09:27.924Z,2.90
2018-09-11T18:11:56.328Z,2.90
2018-09-11T18:14:24.694Z,2.53
2018-09-11T18:16:53.108Z,2.93
2018-09-11T18:19:21.475Z,3.47
2018-09-11T18:21:49.887Z,2.63
2018-09-11T18:24:18.255Z,2.13
2018-09-11T18:26:46.651Z,3.13
2018-09-11T18:29:15.030Z,3.90
2018-09-11T18:31:43.431Z,7.27
2018-09-11T18:34:11.798Z,5.20
2018-09-11T18:36:40.228Z,4.10
2018-09-11T18:39:09.601Z,3.43
2018-09-11T18:41:38.023Z,4.43
2018-09-11T18:44:06.520Z,3.37
2018-09-11T18:46:34.931Z,2.70
2018-09-11T18:49:03.518Z,2.73
2018-09-11T18:51:31.938Z,3.10
2018-09-11T18:54:00.310Z,2.23
2018-09-11T18:56:28.678Z,3.07
2018-09-11T18:58:57.071Z,2.57
2018-09-11T19:01:25.438Z,2.43
2018-09-11T19:03:53.831Z,3.07
2018-09-11T19:06:22.198Z,2.53
2018-09-11T19:08:50.586Z,3.47
2018-09-11T19:11:18.964Z,3.10
2018-09-11T19:13:47.363Z,3.83
2018-09-11T19:16:15.755Z,3.90
2018-09-11T19:18:44.151Z,3.80
2018-09-11T19:21:12.554Z,3.40
2018-09-11T19:23:40.943Z,4.00
2018-09-11T19:26:09.315Z,3.60
2018-09-11T19:28:37.721Z,3.50
2018-09-11T19:31:06.237Z,3.30
2018-09-11T19:33:34.626Z,4.13
2018-09-11T19:36:03.007Z,3.40
2018-09-11T19:38:31.423Z,4.20
2018-09-11T19:40:59.794Z,4.43
2018-09-11T19:43:28.191Z,3.93
2018-09-11T19:45:56.563Z,4.00
2018-09-11T19:48:24.963Z,4.70
2018-09-11T19:50:53.335Z,4.80
2018-09-11T19:53:21.731Z,4.73
2018-09-11T19:55:50.107Z,4.23
2018-09-11T19:58:18.575Z,5.30
2018-09-11T20:00:47.022Z,5.13
2018-09-11T20:03:15.418Z,4.63
2018-09-11T20:05:43.786Z,4.73
2018-09-11T20:08:12.185Z,4.70
2018-09-11T20:10:40.558Z,4.80
2018-09-11T20:13:08.958Z,4.37
2018-09-11T20:15:37.326Z,4.20
2018-09-11T20:18:05.754Z,4.90
2018-09-11T20:20:34.199Z,4.87
2018-09-11T20:23:02.674Z,4.63
2018-09-11T20:25:31.084Z,6.27
2018-09-11T20:27:59.462Z,5.10
2018-09-11T20:30:27.839Z,6.70
2018-09-11T20:32:56.239Z,7.50
2018-09-11T20:35:24.712Z,7.60
2018-09-11T20:37:53.102Z,6.80
2018-09-11T20:40:21.470Z,9.67
2018-09-11T20:42:49.891Z,10.60
2018-09-11T20:45:18.264Z,9.60
2018-09-11T20:47:46.638Z,10.30
2018-09-11T20:50:15.039Z,12.43
2018-09-11T20:52:43.414Z,11.30
2018-09-11T20:55:11.848Z,10.80
2018-09-11T20:57:40.217Z,11.47
2018-09-11T21:00:08.630Z,11.90
2018-09-11T21:02:37.002Z,12.43
2018-09-11T21:05:05.402Z,13.97
2018-09-11T21:07:33.775Z,14.20
2018-09-11T21:10:02.172Z,14.00
2018-09-11T21:12:30.551Z,15.27
2018-09-11T21:14:58.960Z,16.57
2018-09-11T21:17:27.334Z,15.90
2018-09-11T21:19:55.731Z,14.50
2018-09-11T21:22:24.162Z,17.27
2018-09-11T21:24:52.573Z,16.53
2018-09-11T21:27:20.985Z,14.03
2018-09-11T21:29:49.379Z,15.17
2018-09-11T21:32:17.759Z,14.90
2018-09-11T21:34:46.154Z,15.10
2018-09-11T21:37:14.530Z,14.73
2018-09-11T21:39:42.926Z,14.90
2018-09-11T21:42:11.299Z,15.80
2018-09-11T21:44:39.694Z,14.80
2018-09-11T21:47:08.070Z,14.80
2018-09-11T21:49:36.470Z,15.53
2018-09-11T21:52:04.897Z,15.37
2018-09-11T21:54:33.272Z,14.33
2018-09-11T21:57:01.646Z,13.30
2018-09-11T21:59:30.042Z,13.83
2018-09-11T22:02:01.757Z,12.60
2018-09-11T22:04:30.210Z,15.00
2018-09-11T22:06:58.626Z,14.90
2018-09-11T22:09:27.026Z,14.90
2018-09-11T22:11:55.467Z,15.67
2018-09-11T22:14:23.840Z,14.87
2018-09-11T22:16:52.213Z,13.80
2018-09-11T22:19:20.632Z,15.07
2018-09-11T22:21:49.043Z,13.73
2018-09-11T22:24:17.443Z,14.10
2018-09-11T22:26:45.818Z,13.10
2018-09-11T22:29:14.210Z,15.03
2018-09-11T22:31:42.586Z,16.07
2018-09-11T22:34:10.984Z,16.27
2018-09-11T22:36:39.367Z,15.30
2018-09-11T22:39:08.427Z,19.23
2018-09-11T22:41:36.825Z,19.00
2018-09-11T22:44:05.238Z,18.80
2018-09-11T22:46:33.625Z,19.73
2018-09-11T22:49:02.038Z,18.40
2018-09-11T22:51:30.423Z,21.10
2018-09-11T22:53:58.793Z,20.27
2018-09-11T22:56:27.190Z,19.73
2018-09-11T22:58:55.567Z,19.33
2018-09-11T23:01:23.966Z,21.07
2018-09-11T23:03:52.343Z,22.37
2018-09-11T23:06:20.911Z,19.43
2018-09-11T23:08:49.294Z,19.33
2018-09-11T23:11:17.695Z,22.20
2018-09-11T23:13:46.072Z,20.90
2018-09-11T23:16:14.470Z,20.90
2018-09-11T23:18:42.850Z,20.73
2018-09-11T23:21:11.253Z,21.40
2018-09-11T23:23:39.646Z,24.43
2018-09-11T23:26:08.178Z,23.10
2018-09-11T23:28:36.562Z,21.80
2018-09-11T23:31:04.964Z,22.40
2018-09-11T23:33:33.339Z,22.70
2018-09-11T23:36:01.749Z,25.20
2018-09-11T23:38:30.135Z,23.40
2018-09-11T23:40:58.534Z,23.73
2018-09-11T23:43:26.930Z,22.57
2018-09-11T23:45:55.332Z,23.53
2018-09-11T23:48:23.711Z,25.47
2018-09-11T23:50:52.111Z,23.30
2018-09-11T23:53:20.482Z,26.33
2018-09-11T23:55:48.887Z,25.00
2018-09-11T23:58:17.265Z,24.43
